sensor_id;sensor_type;location;lat;lon;timestamp;pressure;altitude;pressure_sealevel;temperature;humidity
20909;BME280;10614;53.198;6.570;2023-03-01T00:01:18;103299.63;;;3.49;100.00
20909;BME280;10614;53.198;6.570;2023-03-01T00:03:21;103302.19;;;3.47;100.00
20909;BME280;10614;53.198;6.570;2023-03-01T00:05:23;103296.94;;;3.46;100.00
20909;BME280;10614;53.198;6.570;2023-03-01T00:07:24;103298.66;;;3.45;100.00
20909;BME280;10614;53.198;6.570;2023-03-01T00:09:26;103296.84;;;3.43;100.00
20909;BME280;10614;53.198;6.570;2023-03-01T00:11:29;103298.59;;;3.42;100.00
20909;BME280;10614;53.198;6.570;2023-03-01T00:13:31;103295.94;;;3.41;100.00
20909;BME280;10614;53.198;6.570;2023-03-01T00:15:33;103295.00;;;3.38;100.00
20909;BME280;10614;53.198;6.570;2023-03-01T00:17:37;103286.22;;;3.35;100.00
20909;BME280;10614;53.198;6.570;2023-03-01T00:19:41;103289.59;;;3.32;100.00
20909;BME280;10614;53.198;6.570;2023-03-01T00:21:43;103291.25;;;3.29;100.00
20909;BME280;10614;53.198;6.570;2023-03-01T00:23:45;103293.78;;;3.26;100.00
20909;BME280;10614;53.198;6.570;2023-03-01T00:25:49;103290.13;;;3.21;100.00
20909;BME280;10614;53.198;6.570;2023-03-01T00:27:51;103294.31;;;3.15;100.00
20909;BME280;10614;53.198;6.570;2023-03-01T00:29:53;103290.75;;;3.12;100.00
20909;BME280;10614;53.198;6.570;2023-03-01T00:31:54;103295.81;;;3.07;100.00
20909;BME280;10614;53.198;6.570;2023-03-01T00:33:58;103295.69;;;3.03;100.00
20909;BME280;10614;53.198;6.570;2023-03-01T00:36:01;103293.06;;;3.03;100.00
20909;BME280;10614;53.198;6.570;2023-03-01T00:38:04;103292.06;;;2.99;100.00
20909;BME280;10614;53.198;6.570;2023-03-01T00:40:07;103282.47;;;2.96;100.00
20909;BME280;10614;53.198;6.570;2023-03-01T00:42:10;103283.25;;;2.94;100.00
20909;BME280;10614;53.198;6.570;2023-03-01T00:44:12;103284.91;;;2.90;100.00
20909;BME280;10614;53.198;6.570;2023-03-01T00:46:15;103289.97;;;2.86;100.00
20909;BME280;10614;53.198;6.570;2023-03-01T00:48:17;103293.28;;;2.82;100.00
20909;BME280;10614;53.198;6.570;2023-03-01T00:50:21;103287.06;;;2.77;100.00
20909;BME280;10614;53.198;6.570;2023-03-01T00:52:23;103294.91;;;2.78;100.00
20909;BME280;10614;53.198;6.570;2023-03-01T00:54:24;103288.72;;;2.74;100.00
20909;BME280;10614;53.198;6.570;2023-03-01T00:56:26;103282.50;;;2.69;100.00
20909;BME280;10614;53.198;6.570;2023-03-01T00:58:29;103293.63;;;2.65;100.00
20909;BME280;10614;53.198;6.570;2023-03-01T01:00:31;103292.63;;;2.62;100.00
20909;BME280;10614;53.198;6.570;2023-03-01T01:02:34;103288.19;;;2.58;100.00
20909;BME280;10614;53.198;6.570;2023-03-01T01:04:36;103298.47;;;2.54;100.00
20909;BME280;10614;53.198;6.570;2023-03-01T01:06:40;103291.41;;;2.50;100.00
20909;BME280;10614;53.198;6.570;2023-03-01T01:08:43;103292.16;;;2.46;100.00
20909;BME280;10614;53.198;6.570;2023-03-01T01:10:45;103286.84;;;2.43;100.00
20909;BME280;10614;53.198;6.570;2023-03-01T01:12:47;103289.41;;;2.42;100.00
20909;BME280;10614;53.198;6.570;2023-03-01T01:14:48;103285.88;;;2.40;100.00
20909;BME280;10614;53.198;6.570;2023-03-01T01:16:50;103279.59;;;2.33;100.00
20909;BME280;10614;53.198;6.570;2023-03-01T01:18:53;103280.38;;;2.30;100.00
20909;BME280;10614;53.198;6.570;2023-03-01T01:20:55;103274.16;;;2.27;100.00
20909;BME280;10614;53.198;6.570;2023-03-01T01:22:58;103263.69;;;2.24;100.00
20909;BME280;10614;53.198;6.570;2023-03-01T01:25:00;103269.59;;;2.20;100.00
20909;BME280;10614;53.198;6.570;2023-03-01T01:27:02;103269.56;;;2.18;100.00
20909;BME280;10614;53.198;6.570;2023-03-01T01:29:05;103266.91;;;2.17;100.00
20909;BME280;10614;53.198;6.570;2023-03-01T01:31:07;103272.88;;;2.14;100.00
20909;BME280;10614;53.198;6.570;2023-03-01T01:33:08;103265.94;;;2.13;100.00
20909;BME280;10614;53.198;6.570;2023-03-01T01:35:10;103260.47;;;2.05;100.00
20909;BME280;10614;53.198;6.570;2023-03-01T01:37:12;103245.31;;;1.92;100.00
20909;BME280;10614;53.198;6.570;2023-03-01T01:39:15;103253.81;;;1.88;100.00
20909;BME280;10614;53.198;6.570;2023-03-01T01:41:18;103248.63;;;1.88;100.00
20909;BME280;10614;53.198;6.570;2023-03-01T01:43:23;103251.22;;;1.88;100.00
20909;BME280;10614;53.198;6.570;2023-03-01T01:45:29;103241.53;;;1.84;100.00
20909;BME280;10614;53.198;6.570;2023-03-01T01:47:31;103249.56;;;1.90;100.00
20909;BME280;10614;53.198;6.570;2023-03-01T01:49:35;103248.63;;;1.88;100.00
20909;BME280;10614;53.198;6.570;2023-03-01T01:51:40;103242.47;;;1.86;100.00
20909;BME280;10614;53.198;6.570;2023-03-01T01:53:45;103250.28;;;1.86;100.00
20909;BME280;10614;53.198;6.570;2023-03-01T01:55:53;103244.19;;;1.85;100.00
20909;BME280;10614;53.198;6.570;2023-03-01T01:58:02;103246.75;;;1.84;100.00
20909;BME280;10614;53.198;6.570;2023-03-01T02:00:07;103236.41;;;1.85;100.00
20909;BME280;10614;53.198;6.570;2023-03-01T02:02:09;103235.47;;;1.83;100.00
20909;BME280;10614;53.198;6.570;2023-03-01T02:04:11;103233.66;;;1.81;100.00
20909;BME280;10614;53.198;6.570;2023-03-01T02:06:18;103228.41;;;1.79;100.00
20909;BME280;10614;53.198;6.570;2023-03-01T02:08:26;103233.53;;;1.78;100.00
20909;BME280;10614;53.198;6.570;2023-03-01T02:10:29;103227.47;;;1.77;100.00
20909;BME280;10614;53.198;6.570;2023-03-01T02:12:36;103229.97;;;1.74;100.00
20909;BME280;10614;53.198;6.570;2023-03-01T02:14:39;103228.19;;;1.73;100.00
20909;BME280;10614;53.198;6.570;2023-03-01T02:16:41;103214.16;;;1.68;100.00
20909;BME280;10614;53.198;6.570;2023-03-01T02:18:43;103225.41;;;1.68;100.00
20909;BME280;10614;53.198;6.570;2023-03-01T02:20:54;103217.38;;;1.61;100.00
20909;BME280;10614;53.198;6.570;2023-03-01T02:23:00;103216.44;;;1.59;100.00
20909;BME280;10614;53.198;6.570;2023-03-01T02:25:08;103207.69;;;1.57;100.00
20909;BME280;10614;53.198;6.570;2023-03-01T02:27:13;103192.88;;;1.53;100.00
20909;BME280;10614;53.198;6.570;2023-03-01T02:29:17;103204.06;;;1.52;100.00
20909;BME280;10614;53.198;6.570;2023-03-01T02:31:20;103210.09;;;1.51;100.00
20909;BME280;10614;53.198;6.570;2023-03-01T02:33:41;103199.63;;;1.47;100.00
20909;BME280;10614;53.198;6.570;2023-03-01T02:35:45;103193.47;;;1.45;100.00
20909;BME280;10614;53.198;6.570;2023-03-01T02:37:47;103196.84;;;1.43;100.00
20909;BME280;10614;53.198;6.570;2023-03-01T02:39:52;103185.41;;;1.38;100.00
20909;BME280;10614;53.198;6.570;2023-03-01T02:41:57;103183.66;;;1.37;100.00
20909;BME280;10614;53.198;6.570;2023-03-01T02:44:00;103181.78;;;1.33;100.00
20909;BME280;10614;53.198;6.570;2023-03-01T02:46:05;103187.84;;;1.33;100.00
20909;BME280;10614;53.198;6.570;2023-03-01T02:48:07;103188.69;;;1.32;100.00
20909;BME280;10614;53.198;6.570;2023-03-01T02:50:38;103186.00;;;1.31;100.00
20909;BME280;10614;53.198;6.570;2023-03-01T02:52:46;103190.22;;;1.27;100.00
20909;BME280;10614;53.198;6.570;2023-03-01T02:54:54;103187.50;;;1.24;100.00
20909;BME280;10614;53.198;6.570;2023-03-01T02:56:59;103178.75;;;1.20;100.00
20909;BME280;10614;53.198;6.570;2023-03-01T02:59:01;103173.47;;;1.19;100.00
20909;BME280;10614;53.198;6.570;2023-03-01T03:01:05;103175.13;;;1.17;100.00
20909;BME280;10614;53.198;6.570;2023-03-01T03:03:07;103164.72;;;1.15;100.00
20909;BME280;10614;53.198;6.570;2023-03-01T03:05:11;103173.28;;;1.13;100.00
20909;BME280;10614;53.198;6.570;2023-03-01T03:07:13;103172.34;;;1.11;100.00
20909;BME280;10614;53.198;6.570;2023-03-01T03:09:15;103173.22;;;1.11;100.00
20909;BME280;10614;53.198;6.570;2023-03-01T03:11:17;103175.63;;;1.07;100.00
20909;BME280;10614;53.198;6.570;2023-03-01T03:13:19;103168.56;;;1.02;100.00
20909;BME280;10614;53.198;6.570;2023-03-01T03:15:22;103171.84;;;0.97;100.00
20909;BME280;10614;53.198;6.570;2023-03-01T03:17:26;103171.75;;;0.95;100.00
20909;BME280;10614;53.198;6.570;2023-03-01T03:19:27;103169.00;;;0.91;100.00
20909;BME280;10614;53.198;6.570;2023-03-01T03:21:28;103166.22;;;0.86;100.00
20909;BME280;10614;53.198;6.570;2023-03-01T03:23:30;103160.94;;;0.83;100.00
20909;BME280;10614;53.198;6.570;2023-03-01T03:25:31;103169.50;;;0.80;100.00
20909;BME280;10614;53.198;6.570;2023-03-01T03:27:38;103166.81;;;0.79;100.00
20909;BME280;10614;53.198;6.570;2023-03-01T03:29:40;103172.84;;;0.78;100.00
20909;BME280;10614;53.198;6.570;2023-03-01T03:31:41;103168.44;;;0.75;100.00
20909;BME280;10614;53.198;6.570;2023-03-01T03:33:44;103173.56;;;0.74;100.00
20909;BME280;10614;53.198;6.570;2023-03-01T03:35:48;103175.28;;;0.73;100.00
20909;BME280;10614;53.198;6.570;2023-03-01T03:37:50;103176.06;;;0.72;100.00
20909;BME280;10614;53.198;6.570;2023-03-01T03:40:06;103180.28;;;0.69;100.00
20909;BME280;10614;53.198;6.570;2023-03-01T03:42:15;103176.66;;;0.65;100.00
20909;BME280;10614;53.198;6.570;2023-03-01T03:44:16;103178.47;;;0.66;100.00
20909;BME280;10614;53.198;6.570;2023-03-01T03:46:18;103186.16;;;0.65;100.00
20909;BME280;10614;53.198;6.570;2023-03-01T03:48:20;103185.28;;;0.64;100.00
20909;BME280;10614;53.198;6.570;2023-03-01T03:50:23;103183.50;;;0.63;100.00
20909;BME280;10614;53.198;6.570;2023-03-01T03:52:25;103174.84;;;0.62;100.00
20909;BME280;10614;53.198;6.570;2023-03-01T03:54:26;103167.84;;;0.60;100.00
20909;BME280;10614;53.198;6.570;2023-03-01T03:56:28;103171.19;;;0.57;100.00
20909;BME280;10614;53.198;6.570;2023-03-01T03:58:30;103160.75;;;0.56;100.00
20909;BME280;10614;53.198;6.570;2023-03-01T04:00:34;103158.91;;;0.52;100.00
20909;BME280;10614;53.198;6.570;2023-03-01T04:02:35;103166.69;;;0.52;100.00
20909;BME280;10614;53.198;6.570;2023-03-01T04:04:37;103172.63;;;0.49;100.00
20909;BME280;10614;53.198;6.570;2023-03-01T04:06:40;103167.28;;;0.45;100.00
20909;BME280;10614;53.198;6.570;2023-03-01T04:08:42;103178.50;;;0.45;100.00
20909;BME280;10614;53.198;6.570;2023-03-01T04:10:47;103181.03;;;0.44;100.00
20909;BME280;10614;53.198;6.570;2023-03-01T04:12:49;103183.53;;;0.42;100.00
20909;BME280;10614;53.198;6.570;2023-03-01T04:14:50;103180.09;;;0.41;100.00
20909;BME280;10614;53.198;6.570;2023-03-01T04:16:52;103186.97;;;0.41;100.00
20909;BME280;10614;53.198;6.570;2023-03-01T04:18:53;103182.63;;;0.40;100.00
20909;BME280;10614;53.198;6.570;2023-03-01T04:20:55;103189.50;;;0.39;100.00
20909;BME280;10614;53.198;6.570;2023-03-01T04:23:00;103179.84;;;0.35;100.00
20909;BME280;10614;53.198;6.570;2023-03-01T04:25:10;103184.09;;;0.33;100.00
20909;BME280;10614;53.198;6.570;2023-03-01T04:27:14;103176.25;;;0.32;100.00
20909;BME280;10614;53.198;6.570;2023-03-01T17:55:44;102803.06;;;9.42;77.51
20909;BME280;10614;53.198;6.570;2023-03-01T18:33:21;102830.28;;;8.26;80.89
20909;BME280;10614;53.198;6.570;2023-03-01T18:35:23;102839.91;;;8.21;81.14
20909;BME280;10614;53.198;6.570;2023-03-01T18:37:27;102843.41;;;8.14;80.99
20909;BME280;10614;53.198;6.570;2023-03-01T18:39:31;102834.66;;;8.10;81.28
20909;BME280;10614;53.198;6.570;2023-03-01T18:41:34;102839.88;;;8.07;81.55
20909;BME280;10614;53.198;6.570;2023-03-01T18:43:36;102834.63;;;8.01;82.09
20909;BME280;10614;53.198;6.570;2023-03-01T18:45:38;102838.13;;;7.97;82.15
20909;BME280;10614;53.198;6.570;2023-03-01T18:47:44;102837.22;;;7.90;82.61
20909;BME280;10614;53.198;6.570;2023-03-01T18:49:50;102831.06;;;7.79;82.37
20909;BME280;10614;53.198;6.570;2023-03-01T18:51:52;102839.75;;;7.69;83.20
20909;BME280;10614;53.198;6.570;2023-03-01T18:53:55;102831.00;;;7.62;83.56
20909;BME280;10614;53.198;6.570;2023-03-01T18:55:59;102830.94;;;7.50;83.51
20909;BME280;10614;53.198;6.570;2023-03-01T18:58:01;102832.69;;;7.45;83.92
20909;BME280;10614;53.198;6.570;2023-03-01T19:00:04;102836.13;;;7.39;84.23
20909;BME280;10614;53.198;6.570;2023-03-01T19:02:06;102835.22;;;7.34;84.53
20909;BME280;10614;53.198;6.570;2023-03-01T19:04:07;102837.78;;;7.25;84.60
20909;BME280;10614;53.198;6.570;2023-03-01T19:06:11;102845.63;;;7.17;84.91
20909;BME280;10614;53.198;6.570;2023-03-01T19:08:13;102835.09;;;7.12;84.87
20909;BME280;10614;53.198;6.570;2023-03-01T19:10:15;102842.06;;;7.10;85.91
20909;BME280;10614;53.198;6.570;2023-03-01T19:12:17;102841.22;;;7.10;85.51
20909;BME280;10614;53.198;6.570;2023-03-01T19:14:19;102838.56;;;7.08;85.65
20909;BME280;10614;53.198;6.570;2023-03-01T19:16:22;102850.78;;;7.05;85.73
20909;BME280;10614;53.198;6.570;2023-03-01T19:18:26;102844.59;;;6.96;85.93
20909;BME280;10614;53.198;6.570;2023-03-01T19:20:29;102843.66;;;6.90;86.78
20909;BME280;10614;53.198;6.570;2023-03-01T19:22:32;102847.13;;;6.86;87.05
20909;BME280;10614;53.198;6.570;2023-03-01T19:24:34;102851.41;;;6.76;87.11
20909;BME280;10614;53.198;6.570;2023-03-01T19:26:35;102851.38;;;6.68;87.68
20909;BME280;10614;53.198;6.570;2023-03-01T19:28:41;102851.31;;;6.62;87.70
20909;BME280;10614;53.198;6.570;2023-03-01T19:30:43;102851.31;;;6.61;87.71
20909;BME280;10614;53.198;6.570;2023-03-01T19:32:45;102840.84;;;6.61;88.40
20909;BME280;10614;53.198;6.570;2023-03-01T19:34:47;102858.25;;;6.60;88.05
20909;BME280;10614;53.198;6.570;2023-03-01T19:36:48;102853.03;;;6.59;88.25
20909;BME280;10614;53.198;6.570;2023-03-01T19:38:52;102854.72;;;6.55;89.15
20909;BME280;10614;53.198;6.570;2023-03-01T19:40:54;102848.59;;;6.53;89.01
20909;BME280;10614;53.198;6.570;2023-03-01T19:42:56;102852.97;;;6.51;89.74
20909;BME280;10614;53.198;6.570;2023-03-01T19:44:57;102851.19;;;6.47;89.36
20909;BME280;10614;53.198;6.570;2023-03-01T19:47:02;102855.50;;;6.43;90.24
20909;BME280;10614;53.198;6.570;2023-03-01T19:49:04;102858.97;;;6.41;90.15
20909;BME280;10614;53.198;6.570;2023-03-01T19:51:07;102858.06;;;6.39;91.13
20909;BME280;10614;53.198;6.570;2023-03-01T19:53:09;102850.25;;;6.40;90.96
20909;BME280;10614;53.198;6.570;2023-03-01T19:55:12;102852.00;;;6.40;91.28
20909;BME280;10614;53.198;6.570;2023-03-01T19:57:14;102859.84;;;6.40;91.13
20909;BME280;10614;53.198;6.570;2023-03-01T19:59:17;102854.56;;;6.38;91.51
20909;BME280;10614;53.198;6.570;2023-03-01T20:01:24;102857.16;;;6.33;91.36
20909;BME280;10614;53.198;6.570;2023-03-01T20:03:30;102862.38;;;6.33;91.31
20909;BME280;10614;53.198;6.570;2023-03-01T20:05:32;102860.63;;;6.32;91.86
20909;BME280;10614;53.198;6.570;2023-03-01T20:07:35;102867.59;;;6.32;91.51
20909;BME280;10614;53.198;6.570;2023-03-01T20:09:37;102869.34;;;6.30;91.90
20909;BME280;10614;53.198;6.570;2023-03-01T20:11:40;102866.66;;;6.27;92.75
20909;BME280;10614;53.198;6.570;2023-03-01T20:13:42;102865.78;;;6.26;92.59
20909;BME280;10614;53.198;6.570;2023-03-01T20:15:44;102864.06;;;6.25;93.35
20909;BME280;10614;53.198;6.570;2023-03-01T20:17:46;102864.06;;;6.25;93.72
20909;BME280;10614;53.198;6.570;2023-03-01T20:19:48;102860.53;;;6.25;93.04
20909;BME280;10614;53.198;6.570;2023-03-01T20:21:50;102862.31;;;6.26;93.41
20909;BME280;10614;53.198;6.570;2023-03-01T20:23:52;102866.66;;;6.25;93.96
20909;BME280;10614;53.198;6.570;2023-03-01T20:26:04;102871.84;;;6.22;93.78
20909;BME280;10614;53.198;6.570;2023-03-01T20:28:07;102866.63;;;6.22;93.60
20909;BME280;10614;53.198;6.570;2023-03-01T20:30:10;102864.00;;;6.21;93.74
20909;BME280;10614;53.198;6.570;2023-03-01T20:32:12;102866.59;;;6.19;94.24
20909;BME280;10614;53.198;6.570;2023-03-01T20:34:14;102863.06;;;6.16;94.50
20909;BME280;10614;53.198;6.570;2023-03-01T20:36:19;102869.13;;;6.13;94.31
20909;BME280;10614;53.198;6.570;2023-03-01T20:38:21;102866.50;;;6.10;94.55
20909;BME280;10614;53.198;6.570;2023-03-01T20:40:23;102863.81;;;6.05;94.32
20909;BME280;10614;53.198;6.570;2023-03-01T20:42:27;102871.63;;;6.01;94.91
20909;BME280;10614;53.198;6.570;2023-03-01T20:44:30;102877.69;;;5.98;95.91
20909;BME280;10614;53.198;6.570;2023-03-01T20:46:32;102875.03;;;5.95;95.50
20909;BME280;10614;53.198;6.570;2023-03-01T20:48:34;102871.53;;;5.95;95.83
20909;BME280;10614;53.198;6.570;2023-03-01T20:50:39;102873.28;;;5.94;95.88
20909;BME280;10614;53.198;6.570;2023-03-01T20:52:41;102875.78;;;5.89;95.89
20909;BME280;10614;53.198;6.570;2023-03-01T20:54:43;102878.41;;;5.88;96.27
20909;BME280;10614;53.198;6.570;2023-03-01T20:56:46;102875.75;;;5.83;96.40
20909;BME280;10614;53.198;6.570;2023-03-01T20:58:48;102885.31;;;5.81;96.20
20909;BME280;10614;53.198;6.570;2023-03-01T21:00:52;102884.44;;;5.81;97.45
20909;BME280;10614;53.198;6.570;2023-03-01T21:02:53;102883.53;;;5.79;97.16
20909;BME280;10614;53.198;6.570;2023-03-01T21:04:55;102884.44;;;5.81;97.41
20909;BME280;10614;53.198;6.570;2023-03-01T21:06:57;102884.44;;;5.81;96.56
20909;BME280;10614;53.198;6.570;2023-03-01T21:08:58;102885.22;;;5.78;97.14
20909;BME280;10614;53.198;6.570;2023-03-01T21:11:00;102882.63;;;5.77;97.03
20909;BME280;10614;53.198;6.570;2023-03-01T21:13:02;102880.84;;;5.76;97.95
20909;BME280;10614;53.198;6.570;2023-03-01T21:15:05;102882.56;;;5.72;98.15
20909;BME280;10614;53.198;6.570;2023-03-01T21:17:09;102886.03;;;5.71;98.17
20909;BME280;10614;53.198;6.570;2023-03-01T21:19:11;102872.06;;;5.67;98.19
20909;BME280;10614;53.198;6.570;2023-03-01T21:21:17;102878.16;;;5.68;97.84
20909;BME280;10614;53.198;6.570;2023-03-01T21:23:19;102875.53;;;5.68;98.22
20909;BME280;10614;53.198;6.570;2023-03-01T21:25:21;102879.88;;;5.66;97.90
20909;BME280;10614;53.198;6.570;2023-03-01T21:27:23;102872.84;;;5.60;98.53
20909;BME280;10614;53.198;6.570;2023-03-01T21:29:24;102874.59;;;5.63;98.43
20909;BME280;10614;53.198;6.570;2023-03-01T21:31:27;102874.59;;;5.63;98.68
20909;BME280;10614;53.198;6.570;2023-03-01T21:33:33;102877.25;;;5.64;98.79
20909;BME280;10614;53.198;6.570;2023-03-01T21:35:34;102875.50;;;5.65;99.69
20909;BME280;10614;53.198;6.570;2023-03-01T21:37:36;102870.22;;;5.62;98.42
20909;BME280;10614;53.198;6.570;2023-03-01T21:39:38;102869.34;;;5.60;98.94
20909;BME280;10614;53.198;6.570;2023-03-01T21:41:40;102859.75;;;5.59;99.85
20909;BME280;10614;53.198;6.570;2023-03-01T21:43:42;102852.72;;;5.55;99.00
20909;BME280;10614;53.198;6.570;2023-03-01T21:45:44;102857.13;;;5.57;100.00
20909;BME280;10614;53.198;6.570;2023-03-01T21:47:46;102853.63;;;5.55;98.91
20909;BME280;10614;53.198;6.570;2023-03-01T21:49:49;102855.28;;;5.52;99.15
20909;BME280;10614;53.198;6.570;2023-03-01T21:51:51;102848.31;;;5.49;100.00
20909;BME280;10614;53.198;6.570;2023-03-01T21:53:54;102860.50;;;5.48;100.00
20909;BME280;10614;53.198;6.570;2023-03-01T21:55:56;102850.88;;;5.47;99.79
20909;BME280;10614;53.198;6.570;2023-03-01T21:57:57;102856.09;;;5.47;99.55
20909;BME280;10614;53.198;6.570;2023-03-01T21:59:59;102861.31;;;5.46;99.79
20909;BME280;10614;53.198;6.570;2023-03-01T22:02:01;102863.88;;;5.43;100.00
20909;BME280;10614;53.198;6.570;2023-03-01T22:04:03;102855.16;;;5.41;100.00
20909;BME280;10614;53.198;6.570;2023-03-01T22:06:06;102859.50;;;5.40;100.00
20909;BME280;10614;53.198;6.570;2023-03-01T22:08:08;102844.66;;;5.38;100.00
20909;BME280;10614;53.198;6.570;2023-03-01T22:10:10;102850.75;;;5.38;100.00
20909;BME280;10614;53.198;6.570;2023-03-01T22:12:12;102853.38;;;5.38;99.66
20909;BME280;10614;53.198;6.570;2023-03-01T22:14:14;102848.09;;;5.35;100.00
20909;BME280;10614;53.198;6.570;2023-03-01T22:16:16;102855.03;;;5.33;100.00
20909;BME280;10614;53.198;6.570;2023-03-01T22:18:18;102845.47;;;5.34;99.81
20909;BME280;10614;53.198;6.570;2023-03-01T22:20:20;102848.94;;;5.33;99.84
20909;BME280;10614;53.198;6.570;2023-03-01T22:22:23;102855.00;;;5.30;99.77
20909;BME280;10614;53.198;6.570;2023-03-01T22:24:24;102845.44;;;5.31;99.78
20909;BME280;10614;53.198;6.570;2023-03-01T22:26:28;102844.53;;;5.28;100.00
20909;BME280;10614;53.198;6.570;2023-03-01T22:28:31;102849.75;;;5.27;100.00
20909;BME280;10614;53.198;6.570;2023-03-01T22:30:33;102847.94;;;5.23;100.00
20909;BME280;10614;53.198;6.570;2023-03-01T22:32:35;102844.41;;;5.18;100.00
20909;BME280;10614;53.198;6.570;2023-03-01T22:34:36;102845.19;;;5.14;100.00
20909;BME280;10614;53.198;6.570;2023-03-01T22:36:38;102848.66;;;5.11;100.00
20909;BME280;10614;53.198;6.570;2023-03-01T22:38:41;102853.84;;;5.10;100.00
20909;BME280;10614;53.198;6.570;2023-03-01T22:40:43;102861.66;;;5.08;100.00
20909;BME280;10614;53.198;6.570;2023-03-01T22:42:44;102865.09;;;5.07;100.00
20909;BME280;10614;53.198;6.570;2023-03-01T22:44:46;102855.53;;;5.07;100.00
20909;BME280;10614;53.198;6.570;2023-03-01T22:46:48;102855.53;;;5.07;100.00
20909;BME280;10614;53.198;6.570;2023-03-01T22:48:50;102862.53;;;5.08;100.00
20909;BME280;10614;53.198;6.570;2023-03-01T22:50:52;102860.75;;;5.07;100.00
20909;BME280;10614;53.198;6.570;2023-03-01T22:52:54;102863.38;;;5.06;100.00
20909;BME280;10614;53.198;6.570;2023-03-01T22:54:58;102865.97;;;5.06;100.00
20909;BME280;10614;53.198;6.570;2023-03-01T22:56:59;102859.84;;;5.05;100.00
20909;BME280;10614;53.198;6.570;2023-03-01T22:59:03;102857.25;;;5.05;100.00
20909;BME280;10614;53.198;6.570;2023-03-01T23:01:10;102854.59;;;5.02;100.00
20909;BME280;10614;53.198;6.570;2023-03-01T23:03:11;102854.56;;;5.01;100.00
20909;BME280;10614;53.198;6.570;2023-03-01T23:05:13;102857.13;;;4.98;100.00
20909;BME280;10614;53.198;6.570;2023-03-01T23:07:15;102861.53;;;4.99;100.00
20909;BME280;10614;53.198;6.570;2023-03-01T23:09:17;102863.22;;;4.98;100.00
20909;BME280;10614;53.198;6.570;2023-03-01T23:11:22;102859.72;;;4.96;100.00
20909;BME280;10614;53.198;6.570;2023-03-01T23:13:24;102850.13;;;4.95;100.00
20909;BME280;10614;53.198;6.570;2023-03-01T23:15:25;102851.84;;;4.93;100.00
20909;BME280;10614;53.198;6.570;2023-03-01T23:17:27;102850.09;;;4.92;100.00
20909;BME280;10614;53.198;6.570;2023-03-01T23:19:29;102855.28;;;4.91;100.00
20909;BME280;10614;53.198;6.570;2023-03-01T23:21:32;102858.72;;;4.88;100.00
20909;BME280;10614;53.198;6.570;2023-03-01T23:23:34;102856.03;;;4.83;100.00
20909;BME280;10614;53.198;6.570;2023-03-01T23:25:36;102854.25;;;4.81;100.00
20909;BME280;10614;53.198;6.570;2023-03-01T23:27:39;102856.84;;;4.78;100.00
20909;BME280;10614;53.198;6.570;2023-03-01T23:29:41;102857.66;;;4.75;100.00
20909;BME280;10614;53.198;6.570;2023-03-01T23:31:43;102848.94;;;4.75;100.00
20909;BME280;10614;53.198;6.570;2023-03-01T23:33:45;102854.16;;;4.75;100.00
20909;BME280;10614;53.198;6.570;2023-03-01T23:35:47;102853.25;;;4.71;100.00
20909;BME280;10614;53.198;6.570;2023-03-01T23:37:49;102855.78;;;4.68;100.00
20909;BME280;10614;53.198;6.570;2023-03-01T23:39:52;102857.50;;;4.66;100.00
20909;BME280;10614;53.198;6.570;2023-03-01T23:41:54;102857.50;;;4.66;100.00
20909;BME280;10614;53.198;6.570;2023-03-01T23:43:59;102852.25;;;4.64;100.00
20909;BME280;10614;53.198;6.570;2023-03-01T23:46:03;102848.75;;;4.62;100.00
20909;BME280;10614;53.198;6.570;2023-03-01T23:48:05;102849.59;;;4.63;100.00
20909;BME280;10614;53.198;6.570;2023-03-01T23:50:08;102851.34;;;4.62;100.00
20909;BME280;10614;53.198;6.570;2023-03-01T23:52:11;102846.97;;;4.60;100.00
20909;BME280;10614;53.198;6.570;2023-03-01T23:54:16;102842.56;;;4.57;100.00
20909;BME280;10614;53.198;6.570;2023-03-01T23:56:20;102846.00;;;4.55;100.00
20909;BME280;10614;53.198;6.570;2023-03-01T23:58:24;102841.63;;;4.52;100.00
